34分钟前
罗盘
风向 的 风向 290°
风: 9 千吨, 3 beaufort

添加一条跑道以查看侧风和逆风信息。

添加跑道
0 500 1.500 3.000 5.000 8.000 10.000
OVC 300 ft
METAR LFMK 181300Z AUTO 29009KT 9000 OVC003 02/01 Q1032 BECMG NSC

METAR定义 | 嵌入

24小时趋势

航班类别VFRLIFR
温度7 °C0 °C
风速14 千吨0 千吨
能见度10 公里+0 米

更多历史数据

下载我们的安卓应用程序

从你的主屏幕上轻松地访问你的航空天气。
只需一次付费,您就可以获得无广告的体验。

您会帮助我们保持Metar-Taf.com正常运行吗?
您的贡献有助于网站的进一步开发并支付费用。

没有更多广告

您是捐款5美元还是更多?然后,我们将永远不会再向您展示广告,这是我们永恒的感谢!
捐赠前先登录

METAR Ulmodrome de Limoux

Ulmodrome de Limoux是Limoux,法国中的小机场。

Ulmodrome de Limoux最近未发布观察结果。相反,我们向您显示19 km的报告Carcassonne Airport。 该报告是针对2022年1月18日 14:00, 当地时间进行的。

机场观察

风来自西北西 (290°)方向,速度为9 千吨。

可见度为9 公里。

有乌云密布在300 ft的高度。 破损或更高的上限为300 ft。

温度为2 °C,阵风为-4 °C。 露点为1 °C,相对湿度为93%。 海平面上的气压为1032 压力 (QNH)。

发展趋势

  • 变得

    可变方向的风很小或没有。 没有观察到明显的云.

白天

今天,太阳从08:17升起,在17:45降落。 这适用于Ulmodrome de Limoux,世界夏令时可能有所不同。 当地时间与世界标准时间之间的时差为+1 小时。 当前,没有夏令时有效。

公司介绍

我们没有关于这个机场的公司信息。

体会

到Vliegles.nl去找飞行课程,跳伞和其他飞行体验。 浏览页面,了解Ulmodrome de Limoux附近所有可用的活动。 你也可以使用搜索功能来寻找你所在地附近的特定飞行课程、跳伞或其他飞行体验。

您是否要在网站上Ulmodrome de Limoux飞行的天气? 阅读更多   自由!